createdAt,value
2022-08-22T00:01:38.830Z,2.33
2022-08-22T00:06:54.773Z,2.67
2022-08-22T00:12:29.607Z,3.00
2022-08-22T00:17:43.551Z,3.00
2022-08-22T00:23:15.799Z,2.00
2022-08-22T00:28:34.805Z,3.00
2022-08-22T00:34:00.522Z,4.00
2022-08-22T00:39:19.058Z,2.33
2022-08-22T00:45:05.734Z,3.00
2022-08-22T00:50:38.651Z,1.33
2022-08-22T00:56:12.875Z,3.00
2022-08-22T01:01:20.047Z,2.67
2022-08-22T01:06:49.971Z,3.00
2022-08-22T01:12:12.010Z,3.00
2022-08-22T01:17:22.936Z,2.67
2022-08-22T01:22:43.739Z,1.67
2022-08-22T01:27:55.581Z,1.67
2022-08-22T01:33:33.918Z,2.33
2022-08-22T01:38:58.852Z,3.00
2022-08-22T01:44:28.058Z,2.67
2022-08-22T01:49:42.482Z,2.67
2022-08-22T01:55:03.307Z,3.67
2022-08-22T02:00:17.294Z,3.33
2022-08-22T02:05:31.804Z,2.67
2022-08-22T02:11:09.310Z,2.33
2022-08-22T02:16:24.107Z,2.67
2022-08-22T02:21:45.032Z,3.67
2022-08-22T02:27:12.428Z,4.00
2022-08-22T02:32:40.537Z,4.00
2022-08-22T02:38:25.140Z,3.33
2022-08-22T02:43:39.601Z,3.00
2022-08-22T02:48:48.604Z,3.00
2022-08-22T02:53:57.193Z,3.00
2022-08-22T02:59:30.231Z,3.33
2022-08-22T03:04:32.466Z,4.00
2022-08-22T03:09:42.611Z,3.00
2022-08-22T03:15:06.982Z,4.33
2022-08-22T03:20:36.070Z,3.00
2022-08-22T03:25:49.922Z,4.00
2022-08-22T03:31:07.992Z,3.00
2022-08-22T03:36:15.801Z,3.67
2022-08-22T03:41:32.993Z,2.67
2022-08-22T03:47:07.166Z,3.00
2022-08-22T03:53:18.507Z,2.67
2022-08-22T03:58:30.438Z,4.00
2022-08-22T04:03:54.204Z,3.00
2022-08-22T04:09:43.066Z,4.00
2022-08-22T04:15:07.578Z,3.00
2022-08-22T04:20:26.686Z,4.00
2022-08-22T04:25:38.351Z,3.67
2022-08-22T04:31:19.058Z,4.00
2022-08-22T04:36:29.306Z,4.00
2022-08-22T04:41:31.406Z,4.00
2022-08-22T04:46:45.794Z,4.33
2022-08-22T04:51:59.372Z,3.00
2022-08-22T04:57:07.125Z,3.67
2022-08-22T05:02:12.186Z,2.00
2022-08-22T05:07:21.426Z,4.33
2022-08-22T05:12:32.890Z,3.67
2022-08-22T05:17:38.886Z,6.00
2022-08-22T05:22:47.061Z,4.00
2022-08-22T05:27:56.390Z,4.00
2022-08-22T05:33:33.872Z,5.00
2022-08-22T05:38:47.474Z,4.00
2022-08-22T05:43:51.405Z,4.00
2022-08-22T05:48:58.962Z,3.00
2022-08-22T05:54:11.942Z,4.00
2022-08-22T05:59:38.473Z,3.00
2022-08-22T06:04:52.529Z,3.00
2022-08-22T06:10:30.106Z,4.00
2022-08-22T06:15:53.433Z,3.33
2022-08-22T06:21:00.386Z,4.00
2022-08-22T06:26:05.564Z,2.00
2022-08-22T06:31:29.171Z,4.67
2022-08-22T06:36:35.298Z,3.67
2022-08-22T06:41:48.129Z,3.33
2022-08-22T06:46:55.601Z,4.00
2022-08-22T06:52:02.478Z,4.00
2022-08-22T06:57:06.833Z,4.00
2022-08-22T07:02:21.852Z,5.00
2022-08-22T07:07:27.044Z,3.67
2022-08-22T07:12:37.925Z,4.00
2022-08-22T07:17:54.482Z,4.33
2022-08-22T07:23:28.794Z,5.00
2022-08-22T07:28:51.316Z,5.00
2022-08-22T07:34:18.274Z,4.33
2022-08-22T07:39:27.391Z,4.67
2022-08-22T07:44:48.473Z,3.67
2022-08-22T07:50:03.843Z,4.67
2022-08-22T07:55:18.878Z,5.00
2022-08-22T08:00:24.074Z,5.00
2022-08-22T08:05:29.587Z,5.00
2022-08-22T08:10:39.682Z,5.00
2022-08-22T08:15:45.849Z,5.33
2022-08-22T08:21:00.486Z,4.33
2022-08-22T08:26:08.606Z,3.33
2022-08-22T08:31:28.996Z,4.33
2022-08-22T08:36:49.062Z,3.33
2022-08-22T08:42:00.917Z,4.00
2022-08-22T08:47:15.334Z,5.00
2022-08-22T08:52:35.818Z,6.00
2022-08-22T08:57:50.086Z,5.33
2022-08-22T09:02:55.420Z,3.67
2022-08-22T09:08:39.922Z,0.67
2022-08-22T09:13:51.018Z,4.67
2022-08-22T09:19:11.598Z,6.00
2022-08-22T09:24:47.260Z,5.67
2022-08-22T09:30:13.255Z,5.33
2022-08-22T09:35:30.562Z,7.00
2022-08-22T09:40:39.311Z,7.00
2022-08-22T09:45:50.708Z,7.00
2022-08-22T09:51:32.718Z,4.00
2022-08-22T09:56:47.286Z,5.00
2022-08-22T10:02:02.462Z,6.00
2022-08-22T10:07:41.885Z,4.00
2022-08-22T10:13:11.909Z,5.00
2022-08-22T10:18:53.951Z,5.67
2022-08-22T10:24:09.414Z,4.00
2022-08-22T10:29:30.118Z,3.67
2022-08-22T10:34:39.446Z,4.67
2022-08-22T10:39:59.323Z,4.67
2022-08-22T10:45:43.649Z,3.67
2022-08-22T10:50:53.156Z,4.67
2022-08-22T10:56:14.310Z,5.00
2022-08-22T11:01:41.022Z,3.00
2022-08-22T11:06:51.716Z,6.67
2022-08-22T11:12:04.928Z,3.00
2022-08-22T11:17:27.957Z,2.33
2022-08-22T11:22:55.638Z,2.00
2022-08-22T11:28:45.549Z,5.00
2022-08-22T11:33:59.262Z,5.33
2022-08-22T11:39:25.609Z,5.00
2022-08-22T11:44:34.342Z,4.00
2022-08-22T11:49:58.139Z,3.67
2022-08-22T11:55:19.256Z,4.00
2022-08-22T12:00:26.736Z,4.67
2022-08-22T12:05:45.945Z,4.00
2022-08-22T12:11:06.080Z,4.00
2022-08-22T12:16:19.965Z,2.67
2022-08-22T12:21:24.669Z,2.00
2022-08-22T12:26:41.894Z,0.00
2022-08-22T12:31:58.998Z,1.33
2022-08-22T12:37:09.977Z,2.67
2022-08-22T12:42:18.053Z,3.00
2022-08-22T12:47:49.536Z,2.00
2022-08-22T12:52:57.614Z,2.00
2022-08-22T12:58:08.259Z,2.00
2022-08-22T13:03:25.417Z,3.00
2022-08-22T13:08:43.694Z,3.00
2022-08-22T13:14:01.202Z,2.00
2022-08-22T13:19:18.008Z,1.00
2022-08-22T13:24:38.639Z,1.67
2022-08-22T13:29:49.585Z,4.00
2022-08-22T13:34:55.835Z,2.33
2022-08-22T13:40:04.837Z,2.00
2022-08-22T13:45:15.569Z,3.00
2022-08-22T13:50:22.544Z,3.00
2022-08-22T13:55:49.053Z,3.00
2022-08-22T14:01:35.320Z,2.00
2022-08-22T14:06:49.903Z,1.50
2022-08-22T14:11:59.741Z,3.00
2022-08-22T14:17:03.443Z,2.75
2022-08-22T14:22:09.918Z,3.00
2022-08-22T14:27:39.658Z,3.00
2022-08-22T14:32:54.458Z,2.00
2022-08-22T14:38:17.479Z,2.50
2022-08-22T14:43:35.602Z,2.00
2022-08-22T14:48:46.858Z,3.00
2022-08-22T14:53:50.296Z,1.25
2022-08-22T14:59:02.256Z,0.25
2022-08-22T15:04:16.509Z,0.00
2022-08-22T15:09:40.485Z,3.33
2022-08-22T15:14:52.368Z,0.00
2022-08-22T15:20:10.906Z,0.75
2022-08-22T15:25:22.809Z,2.25
2022-08-22T15:30:44.363Z,2.00
2022-08-22T15:35:49.056Z,2.00
2022-08-22T15:40:52.487Z,1.25
2022-08-22T15:46:32.872Z,1.33
2022-08-22T15:51:38.080Z,2.00
2022-08-22T15:57:09.985Z,2.25
2022-08-22T16:02:39.027Z,2.00
2022-08-22T16:07:49.653Z,1.00
2022-08-22T16:13:32.209Z,2.33
2022-08-22T16:18:34.292Z,2.67
2022-08-22T16:23:53.814Z,3.00
2022-08-22T16:29:14.998Z,1.67
2022-08-22T16:34:38.281Z,2.00
2022-08-22T16:40:01.903Z,0.33
2022-08-22T16:45:05.116Z,2.33
2022-08-22T16:50:18.458Z,2.00
2022-08-22T16:55:36.983Z,2.33
2022-08-22T17:00:45.685Z,2.33
2022-08-22T17:06:10.726Z,2.00
2022-08-22T17:11:48.443Z,2.00
2022-08-22T17:17:11.753Z,2.00
2022-08-22T17:22:52.080Z,1.67
2022-08-22T17:28:06.562Z,3.33
2022-08-22T17:33:28.564Z,2.75
2022-08-22T17:38:59.426Z,2.33
2022-08-22T17:44:32.463Z,1.75
2022-08-22T17:49:46.238Z,2.00
2022-08-22T17:55:12.549Z,2.00
2022-08-22T18:00:30.784Z,2.25
2022-08-22T18:05:39.905Z,2.00
2022-08-22T18:11:09.071Z,1.25
2022-08-22T18:16:35.371Z,2.25
2022-08-22T18:21:47.328Z,2.75
2022-08-22T18:27:02.886Z,3.75
2022-08-22T18:32:14.830Z,3.00
2022-08-22T18:37:39.051Z,2.33
2022-08-22T18:42:55.225Z,3.00
2022-08-22T18:47:57.654Z,3.00
2022-08-22T18:53:00.456Z,5.00
2022-08-22T18:58:29.590Z,4.00
2022-08-22T19:03:48.206Z,2.00
2022-08-22T19:09:02.192Z,3.33
2022-08-22T19:14:13.341Z,2.33
2022-08-22T19:19:23.362Z,4.00
2022-08-22T19:24:29.482Z,4.00
2022-08-22T19:29:34.383Z,3.33
2022-08-22T19:34:40.753Z,4.00
2022-08-22T19:39:42.849Z,5.33
2022-08-22T19:45:07.054Z,5.00
2022-08-22T19:50:18.015Z,4.00
2022-08-22T19:56:06.013Z,5.00
2022-08-22T20:01:44.024Z,4.00
2022-08-22T20:07:14.556Z,4.00
2022-08-22T20:12:44.358Z,3.00
2022-08-22T20:18:11.655Z,4.67
2022-08-22T20:23:25.230Z,2.67
2022-08-22T20:28:44.604Z,3.33
2022-08-22T20:33:53.826Z,4.00
2022-08-22T20:39:08.521Z,4.00
2022-08-22T20:44:13.802Z,3.33
2022-08-22T20:49:30.117Z,3.67
2022-08-22T20:54:38.043Z,4.00
2022-08-22T20:59:49.333Z,2.33
2022-08-22T21:05:03.377Z,3.00
2022-08-22T21:10:44.425Z,2.67
2022-08-22T21:15:51.439Z,4.00
2022-08-22T21:20:54.270Z,2.33
2022-08-22T21:26:01.527Z,3.67
2022-08-22T21:31:13.582Z,3.67
2022-08-22T21:36:20.382Z,4.00
2022-08-22T21:41:29.459Z,4.00
2022-08-22T21:46:31.616Z,4.00
2022-08-22T21:51:36.748Z,3.00
2022-08-22T21:56:38.951Z,5.00
2022-08-22T22:01:42.731Z,3.67
2022-08-22T22:06:48.045Z,4.00
2022-08-22T22:11:50.545Z,3.33
2022-08-22T22:16:52.749Z,4.67
2022-08-22T22:21:54.847Z,4.67
2022-08-22T22:26:57.367Z,3.33
2022-08-22T22:31:59.614Z,2.00
2022-08-22T22:37:01.782Z,4.00
2022-08-22T22:42:04.809Z,4.33
2022-08-22T22:47:07.208Z,5.00
2022-08-22T22:52:11.748Z,4.00
2022-08-22T22:57:16.199Z,4.67
2022-08-22T23:02:27.603Z,5.00
2022-08-22T23:07:29.723Z,4.33
2022-08-22T23:12:37.516Z,3.67
2022-08-22T23:17:41.125Z,4.67
2022-08-22T23:22:45.418Z,4.67
2022-08-22T23:27:52.136Z,4.00
2022-08-22T23:32:55.795Z,4.00
2022-08-22T23:37:57.917Z,4.67
2022-08-22T23:43:00.174Z,3.67
2022-08-22T23:48:02.424Z,5.00
2022-08-22T23:53:04.533Z,4.67
2022-08-22T23:58:06.650Z,5.00
